createdAt,value
2022-09-03T00:01:39.342Z,25.50
2022-09-03T00:04:25.729Z,25.40
2022-09-03T00:07:00.864Z,25.40
2022-09-03T00:09:42.225Z,25.40
2022-09-03T00:12:12.068Z,25.40
2022-09-03T00:14:58.100Z,25.40
2022-09-03T00:17:30.951Z,25.40
2022-09-03T00:19:57.993Z,25.40
2022-09-03T00:22:28.541Z,25.40
2022-09-03T00:24:56.728Z,25.40
2022-09-03T00:27:25.668Z,25.40
2022-09-03T00:29:57.461Z,25.40
2022-09-03T00:32:27.782Z,25.40
2022-09-03T00:35:00.838Z,25.40
2022-09-03T00:37:30.027Z,25.40
2022-09-03T00:40:03.515Z,25.40
2022-09-03T00:42:39.862Z,25.40
2022-09-03T00:45:13.467Z,25.40
2022-09-03T00:48:04.393Z,25.40
2022-09-03T00:50:31.441Z,25.40
2022-09-03T00:53:10.468Z,25.40
2022-09-03T00:55:47.451Z,25.40
2022-09-03T00:58:26.952Z,25.40
2022-09-03T01:00:54.191Z,25.40
2022-09-03T01:03:27.367Z,25.30
2022-09-03T01:06:03.557Z,25.30
2022-09-03T01:08:51.022Z,25.30
2022-09-03T01:11:27.432Z,25.30
2022-09-03T01:14:02.660Z,25.30
2022-09-03T01:16:32.724Z,25.30
2022-09-03T01:19:18.056Z,25.30
2022-09-03T01:22:05.327Z,25.30
2022-09-03T01:24:44.951Z,25.30
2022-09-03T01:27:17.858Z,25.30
2022-09-03T01:29:55.491Z,25.30
2022-09-03T01:32:29.049Z,25.30
2022-09-03T01:35:14.724Z,25.30
2022-09-03T01:38:06.391Z,25.30
2022-09-03T01:40:42.901Z,25.30
2022-09-03T01:43:20.077Z,25.30
2022-09-03T01:45:52.967Z,25.30
2022-09-03T01:48:36.224Z,25.30
2022-09-03T01:51:23.982Z,25.30
2022-09-03T01:54:01.380Z,25.20
2022-09-03T01:56:47.543Z,25.30
2022-09-03T01:59:19.964Z,25.30
2022-09-03T02:01:59.686Z,25.20
2022-09-03T02:04:27.126Z,25.20
2022-09-03T02:06:57.361Z,25.30
2022-09-03T02:09:24.400Z,25.20
2022-09-03T02:12:00.329Z,25.20
2022-09-03T02:14:28.036Z,25.20
2022-09-03T02:16:56.336Z,25.20
2022-09-03T02:19:24.393Z,25.20
2022-09-03T02:21:52.539Z,25.20
2022-09-03T02:24:19.713Z,25.20
2022-09-03T02:26:46.979Z,25.20
2022-09-03T02:29:17.445Z,25.20
2022-09-03T02:31:44.804Z,25.20
2022-09-03T02:34:11.867Z,25.20
2022-09-03T02:36:41.128Z,25.20
2022-09-03T02:39:09.279Z,25.20
2022-09-03T02:41:36.402Z,25.20
2022-09-03T02:44:06.560Z,25.20
2022-09-03T02:46:36.721Z,25.20
2022-09-03T02:49:03.992Z,25.20
2022-09-03T02:51:35.287Z,25.20
2022-09-03T02:54:02.635Z,25.20
2022-09-03T02:56:29.790Z,25.20
2022-09-03T02:58:57.083Z,25.20
2022-09-03T03:01:24.508Z,25.20
2022-09-03T03:03:52.340Z,25.10
2022-09-03T03:06:22.460Z,25.20
2022-09-03T03:08:50.244Z,25.20
2022-09-03T03:11:18.342Z,25.10
2022-09-03T03:13:46.476Z,25.10
2022-09-03T03:16:14.566Z,25.10
2022-09-03T03:18:42.190Z,25.10
2022-09-03T03:21:13.975Z,25.10
2022-09-03T03:23:41.028Z,25.10
2022-09-03T03:26:09.842Z,25.10
2022-09-03T03:28:37.175Z,25.10
2022-09-03T03:31:08.428Z,25.10
2022-09-03T03:33:35.672Z,25.10
2022-09-03T03:36:07.023Z,25.10
2022-09-03T03:38:34.564Z,25.10
2022-09-03T03:41:08.822Z,25.10
2022-09-03T03:43:35.894Z,25.10
2022-09-03T03:46:03.324Z,25.10
2022-09-03T03:48:30.765Z,25.00
2022-09-03T03:51:04.877Z,25.10
2022-09-03T03:53:32.453Z,25.10
2022-09-03T03:56:01.399Z,25.10
2022-09-03T03:58:29.571Z,25.10
2022-09-03T04:01:03.727Z,25.10
2022-09-03T04:03:30.864Z,25.10
2022-09-03T04:05:59.730Z,25.10
2022-09-03T04:08:27.287Z,25.00
2022-09-03T04:10:54.373Z,25.10
2022-09-03T04:13:21.501Z,25.00
2022-09-03T04:15:48.572Z,25.00
2022-09-03T04:18:15.864Z,25.00
2022-09-03T04:20:42.976Z,25.00
2022-09-03T04:23:10.063Z,25.00
2022-09-03T04:25:37.185Z,25.00
2022-09-03T04:28:04.665Z,25.00
2022-09-03T04:30:32.351Z,25.00
2022-09-03T04:32:59.704Z,25.00
2022-09-03T04:35:34.374Z,25.00
2022-09-03T04:38:04.683Z,25.00
2022-09-03T04:40:31.736Z,25.00
2022-09-03T04:42:59.424Z,25.00
2022-09-03T04:45:28.461Z,25.00
2022-09-03T04:48:04.855Z,25.00
2022-09-03T04:50:32.965Z,25.00
2022-09-03T04:53:04.515Z,25.00
2022-09-03T04:55:35.256Z,25.00
2022-09-03T04:58:02.378Z,25.00
2022-09-03T05:00:29.515Z,25.00
2022-09-03T05:03:00.007Z,25.00
2022-09-03T05:05:27.138Z,25.00
2022-09-03T05:07:57.694Z,25.00
2022-09-03T05:10:24.742Z,25.00
2022-09-03T05:12:59.170Z,25.00
2022-09-03T05:15:26.321Z,25.00
2022-09-03T05:17:56.671Z,24.90
2022-09-03T05:20:23.854Z,24.90
2022-09-03T05:22:51.432Z,25.00
2022-09-03T05:25:18.976Z,24.90
2022-09-03T05:27:46.857Z,24.90
2022-09-03T05:30:14.373Z,25.00
2022-09-03T05:32:42.001Z,24.90
2022-09-03T05:35:10.551Z,24.90
2022-09-03T05:37:38.077Z,24.90
2022-09-03T05:40:05.581Z,24.90
2022-09-03T05:42:38.174Z,24.90
2022-09-03T05:45:10.773Z,24.90
2022-09-03T05:47:39.529Z,24.90
2022-09-03T05:50:08.689Z,24.90
2022-09-03T05:52:36.234Z,24.90
2022-09-03T05:55:04.372Z,24.90
2022-09-03T05:57:31.842Z,24.90
2022-09-03T06:00:00.325Z,24.90
2022-09-03T06:02:27.471Z,24.90
2022-09-03T06:04:55.932Z,24.90
2022-09-03T06:07:23.105Z,24.90
2022-09-03T06:09:50.381Z,24.90
2022-09-03T06:12:17.487Z,24.90
2022-09-03T06:14:44.662Z,24.80
2022-09-03T06:17:12.661Z,24.90
2022-09-03T06:19:40.123Z,24.90
2022-09-03T06:22:07.261Z,24.80
2022-09-03T06:24:34.392Z,24.90
2022-09-03T06:27:01.754Z,24.90
2022-09-03T06:29:30.182Z,24.90
2022-09-03T06:31:57.560Z,24.80
2022-09-03T06:34:27.229Z,24.90
2022-09-03T06:36:54.708Z,24.90
2022-09-03T06:39:22.346Z,24.80
2022-09-03T06:41:51.729Z,24.90
2022-09-03T06:44:25.759Z,24.90
2022-09-03T06:46:53.576Z,24.80
2022-09-03T06:49:20.852Z,24.80
2022-09-03T06:51:48.018Z,24.80
2022-09-03T06:54:15.859Z,24.80
2022-09-03T06:56:43.043Z,24.80
2022-09-03T06:59:14.149Z,24.80
2022-09-03T07:01:44.108Z,24.80
2022-09-03T07:04:12.908Z,24.80
2022-09-03T07:06:40.493Z,24.80
2022-09-03T07:09:07.952Z,24.80
2022-09-03T07:11:35.912Z,24.80
2022-09-03T07:14:04.427Z,24.80
2022-09-03T07:16:35.750Z,24.80
2022-09-03T07:19:04.591Z,24.80
2022-09-03T07:21:34.066Z,24.80
2022-09-03T07:24:03.048Z,24.80
2022-09-03T07:26:31.183Z,24.80
2022-09-03T07:29:00.234Z,24.80
2022-09-03T07:31:29.851Z,24.80
2022-09-03T07:34:00.983Z,24.80
2022-09-03T07:36:28.851Z,24.80
2022-09-03T07:38:59.854Z,24.80
2022-09-03T07:41:28.405Z,24.80
2022-09-03T07:43:57.176Z,24.80
2022-09-03T07:46:25.682Z,24.80
2022-09-03T07:48:54.419Z,24.80
2022-09-03T07:51:22.339Z,24.80
2022-09-03T07:53:51.992Z,24.70
2022-09-03T07:56:19.281Z,24.70
2022-09-03T07:58:47.589Z,24.80
2022-09-03T08:01:16.392Z,24.80
2022-09-03T08:03:44.862Z,24.80
2022-09-03T08:06:12.647Z,24.80
2022-09-03T08:08:40.347Z,24.80
2022-09-03T08:11:11.712Z,24.80
2022-09-03T08:13:40.709Z,24.70
2022-09-03T08:16:08.558Z,24.80
2022-09-03T08:18:38.401Z,24.80
2022-09-03T08:21:14.861Z,24.80
2022-09-03T08:23:43.051Z,24.70
2022-09-03T08:26:10.392Z,24.80
2022-09-03T08:28:38.054Z,24.70
2022-09-03T08:31:12.057Z,24.70
2022-09-03T08:33:42.413Z,24.70
2022-09-03T08:36:12.676Z,24.80
2022-09-03T08:38:40.941Z,24.80
2022-09-03T08:41:19.899Z,24.80
2022-09-03T08:44:05.615Z,24.80
2022-09-03T08:46:48.281Z,24.80
2022-09-03T08:49:16.805Z,24.70
2022-09-03T08:51:45.220Z,24.80
2022-09-03T08:54:13.480Z,24.80
2022-09-03T08:56:41.735Z,24.80
2022-09-03T08:59:09.656Z,24.80
2022-09-03T09:01:57.452Z,24.80
2022-09-03T09:04:36.988Z,24.80
2022-09-03T09:07:17.412Z,24.80
2022-09-03T09:09:54.230Z,24.80
2022-09-03T09:12:42.847Z,24.80
2022-09-03T09:15:31.986Z,24.80
2022-09-03T09:18:21.554Z,24.80
2022-09-03T09:20:50.623Z,24.80
2022-09-03T09:23:33.227Z,24.80
2022-09-03T09:26:05.195Z,24.80
2022-09-03T09:28:37.687Z,24.80
2022-09-03T09:31:07.611Z,24.80
2022-09-03T09:33:35.570Z,24.80
2022-09-03T09:36:08.464Z,24.80
2022-09-03T09:38:37.039Z,24.80
2022-09-03T09:41:11.312Z,24.80
2022-09-03T09:43:39.217Z,24.80
2022-09-03T09:46:13.212Z,24.90
2022-09-03T09:48:51.672Z,24.80
2022-09-03T09:51:18.815Z,24.90
2022-09-03T09:53:46.161Z,24.90
2022-09-03T09:56:23.297Z,24.90
2022-09-03T09:58:52.621Z,24.90
2022-09-03T10:01:22.707Z,24.90
2022-09-03T10:03:55.315Z,24.90
2022-09-03T10:06:45.839Z,24.90
2022-09-03T10:09:32.038Z,24.90
2022-09-03T10:12:09.523Z,24.90
2022-09-03T10:14:41.197Z,24.90
2022-09-03T10:17:16.948Z,24.90
2022-09-03T10:20:13.271Z,24.90
2022-09-03T10:22:56.260Z,24.90
2022-09-03T10:25:30.576Z,24.90
2022-09-03T10:28:00.937Z,24.90
2022-09-03T10:30:29.938Z,24.90
2022-09-03T10:33:00.003Z,24.90
2022-09-03T10:35:29.081Z,24.90
2022-09-03T10:38:14.706Z,24.90
2022-09-03T10:40:44.777Z,24.90
2022-09-03T10:43:33.104Z,25.00
2022-09-03T10:46:20.606Z,25.00
2022-09-03T10:48:50.511Z,24.90
2022-09-03T10:51:17.853Z,25.00
2022-09-03T10:54:03.807Z,25.00
2022-09-03T10:56:36.296Z,25.00
2022-09-03T10:59:09.867Z,25.00
2022-09-03T11:01:58.607Z,25.00
2022-09-03T11:04:31.825Z,25.00
2022-09-03T11:07:07.220Z,24.90
2022-09-03T11:09:43.594Z,24.90
2022-09-03T11:12:15.053Z,24.90
2022-09-03T11:14:46.862Z,24.90
2022-09-03T11:17:22.049Z,24.90
2022-09-03T11:19:52.891Z,24.90
2022-09-03T11:22:23.089Z,24.90
2022-09-03T11:24:53.890Z,24.90
2022-09-03T11:27:42.774Z,25.00
2022-09-03T11:30:14.903Z,24.90
2022-09-03T11:32:46.691Z,24.90
2022-09-03T11:35:24.962Z,25.00
2022-09-03T11:37:54.984Z,25.00
2022-09-03T11:40:29.434Z,24.90
2022-09-03T11:43:05.460Z,25.00
2022-09-03T11:45:32.572Z,25.00
2022-09-03T11:47:59.795Z,25.00
2022-09-03T11:50:28.504Z,24.90
2022-09-03T11:53:07.838Z,24.90
2022-09-03T11:55:55.455Z,24.90
2022-09-03T11:58:34.613Z,24.90
2022-09-03T12:01:02.594Z,24.90
2022-09-03T12:03:48.763Z,24.90
2022-09-03T12:06:41.474Z,24.90
2022-09-03T12:09:28.544Z,24.90
2022-09-03T12:12:23.830Z,24.90
2022-09-03T12:14:58.004Z,25.00
2022-09-03T12:17:32.176Z,24.90
2022-09-03T12:19:59.281Z,24.90
2022-09-03T12:22:31.349Z,24.90
2022-09-03T12:25:15.022Z,24.90
2022-09-03T12:27:45.236Z,24.90
2022-09-03T12:30:17.155Z,24.90
2022-09-03T12:32:45.476Z,24.90
2022-09-03T12:35:14.330Z,25.00
2022-09-03T12:40:30.648Z,24.90
2022-09-03T12:43:47.626Z,24.90
2022-09-03T12:46:16.198Z,24.90
2022-09-03T12:51:53.513Z,25.00
2022-09-03T12:54:22.342Z,25.00
2022-09-03T12:56:53.847Z,25.00
2022-09-03T12:59:21.627Z,25.00
2022-09-03T13:01:50.325Z,25.00
2022-09-03T13:04:21.139Z,25.00
2022-09-03T13:06:53.081Z,24.90
2022-09-03T13:09:23.041Z,25.00
2022-09-03T13:11:52.346Z,25.00
2022-09-03T13:14:20.092Z,25.00
2022-09-03T13:16:47.386Z,25.00
2022-09-03T13:19:14.520Z,25.00
2022-09-03T13:21:50.417Z,25.00
2022-09-03T13:24:17.455Z,25.10
2022-09-03T13:26:51.763Z,25.10
2022-09-03T13:29:25.022Z,25.00
2022-09-03T13:31:54.764Z,25.10
2022-09-03T13:34:42.973Z,25.10
2022-09-03T13:37:22.278Z,25.10
2022-09-03T13:40:02.012Z,25.10
2022-09-03T13:42:35.823Z,25.20
2022-09-03T13:45:23.204Z,25.20
2022-09-03T13:48:38.693Z,25.30
2022-09-03T13:51:11.668Z,25.40
2022-09-03T13:53:44.712Z,25.40
2022-09-03T13:56:36.141Z,25.30
2022-09-03T13:59:09.815Z,25.30
2022-09-03T14:01:45.882Z,25.20
2022-09-03T14:04:25.419Z,25.20
2022-09-03T14:06:58.850Z,25.20
2022-09-03T14:09:45.012Z,25.20
2022-09-03T14:12:18.567Z,25.20
2022-09-03T14:14:53.458Z,25.10
2022-09-03T14:17:30.892Z,25.20
2022-09-03T14:20:00.635Z,25.20
2022-09-03T14:22:44.277Z,25.20
2022-09-03T14:25:15.394Z,25.30
2022-09-03T14:27:43.030Z,25.30
2022-09-03T14:30:25.081Z,25.30
2022-09-03T14:33:15.624Z,25.30
2022-09-03T14:35:53.571Z,25.20
2022-09-03T14:38:25.267Z,25.20
2022-09-03T14:40:56.255Z,25.20
2022-09-03T14:43:38.673Z,25.10
2022-09-03T14:46:24.840Z,25.10
2022-09-03T14:49:07.074Z,25.10
2022-09-03T14:51:37.169Z,25.10
2022-09-03T14:54:19.560Z,25.10
2022-09-03T14:56:50.593Z,25.10
2022-09-03T14:59:38.165Z,25.10
2022-09-03T15:02:05.271Z,25.10
2022-09-03T15:04:55.725Z,25.10
2022-09-03T15:07:34.043Z,25.10
2022-09-03T15:10:02.338Z,25.10
2022-09-03T15:12:38.277Z,25.10
2022-09-03T15:15:08.712Z,25.10
2022-09-03T15:17:55.668Z,25.10
2022-09-03T15:20:41.073Z,25.10
2022-09-03T15:23:14.493Z,25.00
2022-09-03T15:25:44.549Z,25.00
2022-09-03T15:28:40.813Z,25.00
2022-09-03T15:31:13.920Z,25.10
2022-09-03T15:33:49.705Z,25.00
2022-09-03T15:36:21.236Z,25.00
2022-09-03T15:39:00.544Z,25.00
2022-09-03T15:41:40.197Z,25.00
2022-09-03T15:44:12.769Z,25.00
2022-09-03T15:46:51.954Z,25.00
2022-09-03T15:49:37.884Z,25.00
2022-09-03T15:52:24.821Z,25.00
2022-09-03T15:54:51.887Z,25.00
2022-09-03T15:57:22.369Z,25.00
2022-09-03T16:00:11.073Z,25.00
2022-09-03T16:02:38.227Z,25.00
2022-09-03T16:05:14.137Z,25.00
2022-09-03T16:07:55.263Z,25.00
2022-09-03T16:10:25.324Z,25.00
2022-09-03T16:13:18.720Z,25.00
2022-09-03T16:15:48.172Z,25.00
2022-09-03T16:18:23.092Z,25.00
2022-09-03T16:20:57.075Z,24.90
2022-09-03T16:23:40.553Z,25.00
2022-09-03T16:26:10.042Z,24.90
2022-09-03T16:28:47.751Z,24.90
2022-09-03T16:31:21.302Z,24.90
2022-09-03T16:33:48.483Z,25.00
2022-09-03T16:36:15.554Z,25.00
2022-09-03T16:39:01.673Z,25.00
2022-09-03T16:41:50.819Z,25.00
2022-09-03T16:44:29.523Z,25.00
2022-09-03T16:46:56.659Z,25.00
2022-09-03T16:49:38.219Z,24.90
2022-09-03T16:52:15.914Z,24.90
2022-09-03T16:54:57.205Z,25.00
2022-09-03T16:57:24.766Z,24.90
2022-09-03T17:00:11.754Z,25.00
2022-09-03T17:02:49.370Z,24.90
2022-09-03T17:05:35.447Z,24.90
2022-09-03T17:08:21.402Z,24.90
2022-09-03T17:10:53.672Z,24.90
2022-09-03T17:13:20.942Z,24.90
2022-09-03T17:16:07.133Z,24.90
2022-09-03T17:18:40.643Z,24.90
2022-09-03T17:21:12.866Z,24.90
2022-09-03T17:23:45.871Z,24.90
2022-09-03T17:26:16.725Z,24.90
2022-09-03T17:28:46.967Z,24.90
2022-09-03T17:31:15.988Z,24.90
2022-09-03T17:34:02.412Z,24.90
2022-09-03T17:36:48.002Z,24.90
2022-09-03T17:39:32.192Z,24.90
2022-09-03T17:42:20.411Z,24.90
2022-09-03T17:44:53.578Z,24.90
2022-09-03T17:47:23.696Z,24.90
2022-09-03T17:49:54.186Z,24.90
2022-09-03T17:52:27.287Z,24.90
2022-09-03T17:54:56.808Z,24.90
2022-09-03T17:57:30.854Z,24.90
2022-09-03T17:59:57.983Z,24.90
2022-09-03T18:02:27.817Z,24.90
2022-09-03T18:04:59.663Z,24.90
2022-09-03T18:07:27.684Z,24.90
2022-09-03T18:10:18.244Z,24.90
2022-09-03T18:13:03.577Z,24.90
2022-09-03T18:15:39.437Z,24.90
2022-09-03T18:18:20.342Z,24.90
2022-09-03T18:21:24.020Z,24.90
2022-09-03T18:24:26.231Z,24.80
2022-09-03T18:27:17.925Z,24.90
2022-09-03T18:30:03.758Z,24.90
2022-09-03T18:32:49.596Z,24.90
2022-09-03T18:35:35.345Z,24.90
2022-09-03T18:38:22.249Z,24.90
2022-09-03T18:41:34.517Z,24.90
2022-09-03T18:44:39.441Z,24.90
2022-09-03T18:51:06.377Z,24.80
2022-09-03T18:54:01.541Z,24.80
2022-09-03T18:56:56.026Z,24.90
2022-09-03T19:00:00.668Z,24.90
2022-09-03T19:02:46.667Z,24.80
2022-09-03T19:05:44.296Z,24.80
2022-09-03T19:08:33.224Z,24.80
2022-09-03T19:11:38.013Z,24.80
2022-09-03T19:14:31.566Z,24.80
2022-09-03T19:17:22.966Z,24.80
2022-09-03T19:20:08.866Z,24.80
2022-09-03T19:22:56.532Z,24.80
2022-09-03T19:25:43.218Z,24.80
2022-09-03T19:28:28.952Z,24.80
2022-09-03T19:31:33.667Z,24.80
2022-09-03T19:34:31.961Z,24.80
2022-09-03T19:37:36.038Z,24.80
2022-09-03T19:40:40.854Z,24.80
2022-09-03T19:43:36.665Z,24.80
2022-09-03T19:46:41.630Z,24.80
2022-09-03T19:49:41.774Z,24.80
2022-09-03T19:52:30.939Z,24.80
2022-09-03T19:55:16.811Z,24.80
2022-09-03T19:58:04.099Z,24.80
2022-09-03T20:00:50.176Z,24.80
2022-09-03T20:03:35.788Z,24.80
2022-09-03T20:06:23.467Z,24.80
2022-09-03T20:09:10.001Z,24.70
2022-09-03T20:11:38.987Z,24.80
2022-09-03T20:14:14.563Z,24.70
2022-09-03T20:16:44.855Z,24.80
2022-09-03T20:19:21.364Z,24.80
2022-09-03T20:21:57.836Z,24.80
2022-09-03T20:24:45.686Z,24.80
2022-09-03T20:27:18.577Z,24.70
2022-09-03T20:29:45.669Z,24.80
2022-09-03T20:32:18.603Z,24.80
2022-09-03T20:35:05.595Z,24.80
2022-09-03T20:37:38.273Z,24.80
2022-09-03T20:40:08.226Z,24.80
2022-09-03T20:42:35.326Z,24.80
2022-09-03T20:45:18.760Z,24.80
2022-09-03T20:48:00.328Z,24.70
2022-09-03T20:50:43.205Z,24.80
2022-09-03T20:53:19.202Z,24.70
2022-09-03T20:55:49.872Z,24.70
2022-09-03T20:58:22.289Z,24.70
2022-09-03T21:01:02.471Z,24.70
2022-09-03T21:03:35.679Z,24.70
2022-09-03T21:06:09.625Z,24.70
2022-09-03T21:08:55.375Z,24.70
2022-09-03T21:11:32.848Z,24.70
2022-09-03T21:14:14.427Z,24.70
2022-09-03T21:16:41.683Z,24.70
2022-09-03T21:19:19.660Z,24.70
2022-09-03T21:21:49.610Z,24.70
2022-09-03T21:24:31.063Z,24.70
2022-09-03T21:27:04.470Z,24.70
2022-09-03T21:29:44.289Z,24.70
2022-09-03T21:32:14.616Z,24.70
2022-09-03T21:34:44.981Z,24.70
2022-09-03T21:37:13.388Z,24.70
2022-09-03T21:39:49.720Z,24.70
2022-09-03T21:42:24.412Z,24.70
2022-09-03T21:44:54.441Z,24.70
2022-09-03T21:47:24.099Z,24.70
2022-09-03T21:50:02.870Z,24.70
2022-09-03T21:52:37.031Z,24.70
2022-09-03T21:55:09.808Z,24.70
2022-09-03T21:57:47.694Z,24.60
2022-09-03T22:00:17.981Z,24.70
2022-09-03T22:02:46.676Z,24.60
2022-09-03T22:05:14.627Z,24.60
2022-09-03T22:07:57.073Z,24.60
2022-09-03T22:10:42.886Z,24.60
2022-09-03T22:13:14.913Z,24.60
2022-09-03T22:15:50.576Z,24.60
2022-09-03T22:18:26.157Z,24.60
2022-09-03T22:21:01.155Z,24.60
2022-09-03T22:23:43.778Z,24.60
2022-09-03T22:26:21.222Z,24.60
2022-09-03T22:28:51.593Z,24.60
2022-09-03T22:31:25.431Z,24.60
2022-09-03T22:34:12.526Z,24.60
2022-09-03T22:36:41.385Z,24.60
2022-09-03T22:39:08.449Z,24.60
2022-09-03T22:41:54.907Z,24.60
2022-09-03T22:44:28.164Z,24.60
2022-09-03T22:47:07.327Z,24.60
2022-09-03T22:49:46.417Z,24.60
2022-09-03T22:52:28.415Z,24.60
2022-09-03T22:55:14.150Z,24.60
2022-09-03T22:57:53.474Z,24.50
2022-09-03T23:00:21.612Z,24.60
2022-09-03T23:02:53.816Z,24.60
2022-09-03T23:05:41.140Z,24.60
2022-09-03T23:08:17.944Z,24.60
2022-09-03T23:11:01.044Z,24.60
2022-09-03T23:13:35.109Z,24.60
2022-09-03T23:16:09.430Z,24.50
2022-09-03T23:18:37.945Z,24.60
2022-09-03T23:21:34.617Z,24.50
2022-09-03T23:24:05.706Z,24.50
2022-09-03T23:26:41.455Z,24.50
2022-09-03T23:29:15.954Z,24.50
2022-09-03T23:31:43.139Z,24.50
2022-09-03T23:34:11.494Z,24.50
2022-09-03T23:37:31.716Z,24.50
2022-09-03T23:39:53.585Z,24.50
2022-09-03T23:42:29.876Z,24.50
2022-09-03T23:44:56.928Z,24.50
2022-09-03T23:47:37.224Z,24.50
2022-09-03T23:50:07.124Z,24.50
2022-09-03T23:52:37.293Z,24.50
2022-09-03T23:55:17.184Z,24.50
2022-09-03T23:57:54.164Z,24.50
